Time;durP1;ratioP1;P1;durP2;ratioP2;P2;SDS_P1;SDS_P2;PMS_P1;PMS_P2;Temp;Humidity;BMP_temperature;BMP_pressure;BME280_temperature;BME280_humidity;BME280_pressure;Samples;Min_cycle;Max_cycle;Signal;HPM_P1;HPM_P2
2022/10/21 00:02:22;;;;;;;3.83;2.77;;;;;;;3.78;80.18;100620.36;1693078;82;21038;-80
2022/10/21 00:04:51;;;;;;;4.17;2.90;;;;;;;3.73;80.21;100619.84;1739616;81;21603;-77
2022/10/21 00:07:17;;;;;;;5.50;2.98;;;;;;;3.67;80.16;100623.72;1725925;81;21074;-78
2022/10/21 00:09:44;;;;;;;4.28;3.02;;;;;;;3.61;80.27;100613.63;1706457;82;21262;-77
2022/10/21 00:12:10;;;;;;;4.70;2.70;;;;;;;3.59;80.16;100610.23;1748946;81;21049;-78
2022/10/21 00:14:38;;;;;;;4.87;3.10;;;;;;;3.68;80.11;100605.68;1750425;80;21006;-79
2022/10/21 00:17:06;;;;;;;6.72;4.20;;;;;;;3.62;80.28;100604.78;1742902;81;21045;-77
2022/10/21 00:19:33;;;;;;;6.30;3.85;;;;;;;3.51;80.48;100602.02;1740508;81;21069;-78
2022/10/21 00:21:59;;;;;;;5.53;4.17;;;;;;;3.42;80.83;100605.25;1740921;81;21200;-76
2022/10/21 00:24:26;;;;;;;6.97;4.83;;;;;;;3.32;80.79;100606.33;1734650;81;21055;-76
2022/10/21 00:26:55;;;;;;;5.58;4.15;;;;;;;3.20;80.99;100619.78;1733430;81;20997;-75
2022/10/21 00:29:21;;;;;;;6.75;3.70;;;;;;;3.18;81.12;100619.05;1737027;81;21033;-75
2022/10/21 00:31:50;;;;;;;13.43;5.17;;;;;;;3.24;80.92;100627.00;1748731;80;21049;-78
2022/10/21 00:34:17;;;;;;;5.03;4.53;;;;;;;3.18;81.40;100622.98;1731571;82;21169;-76
2022/10/21 00:36:43;;;;;;;5.70;4.47;;;;;;;3.15;81.46;100629.28;1748425;81;21042;-78
2022/10/21 00:39:10;;;;;;;6.53;4.72;;;;;;;3.07;81.55;100625.45;1737574;81;21074;-76
2022/10/21 00:41:37;;;;;;;6.08;4.72;;;;;;;3.07;81.55;100625.45;1713287;81;21075;-76
2022/10/21 00:44:07;;;;;;;5.33;3.83;;;;;;;3.01;81.33;100619.28;1709396;82;21470;-76
2022/10/21 00:46:42;;;;;;;4.65;3.35;;;;;;;3.00;81.38;100619.77;1730517;81;22189;-77
2022/10/21 00:49:26;;;;;;;5.28;3.42;;;;;;;3.11;80.86;100620.37;1731884;81;21073;-78
2022/10/21 00:52:41;;;;;;;3.70;3.00;;;;;;;3.10;80.96;100620.02;1829534;77;22778;-75
2022/10/21 00:55:08;;;;;;;5.55;3.52;;;;;;;3.01;81.03;100621.44;1791904;78;21003;-78
2022/10/21 00:57:34;;;;;;;4.75;3.45;;;;;;;2.95;80.92;100621.38;1790240;78;21180;-77
2022/10/21 01:00:04;;;;;;;5.25;3.75;;;;;;;2.95;80.92;100621.38;1793112;78;21072;-79
2022/10/21 01:02:32;;;;;;;5.25;3.60;;;;;;;2.90;80.75;100619.51;1792798;78;21008;-78
2022/10/21 01:05:00;;;;;;;4.75;3.17;;;;;;;3.08;80.22;100617.96;1800999;78;21036;-75
2022/10/21 01:07:28;;;;;;;5.58;3.35;;;;;;;3.08;80.22;100617.96;1800994;78;21174;-77
2022/10/21 01:09:54;;;;;;;4.80;3.33;;;;;;;3.03;80.13;100614.78;1803859;77;21200;-77
2022/10/21 01:13:06;;;;;;;5.55;3.40;;;;;;;2.91;80.01;100606.74;1819020;78;21097;-77
2022/10/21 01:15:44;;;;;;;4.78;3.42;;;;;;;2.73;80.41;100614.48;1774094;79;20981;-78
2022/10/21 01:18:37;;;;;;;4.50;3.55;;;;;;;2.73;80.41;100614.48;1781217;80;21112;-77
2022/10/21 01:21:31;;;;;;;4.87;3.27;;;;;;;2.63;80.53;100611.59;1788117;79;21046;-76
2022/10/21 01:24:33;;;;;;;3.50;2.98;;;;;;;2.63;80.57;100608.14;1762345;79;21527;-75
2022/10/21 01:27:28;;;;;;;5.25;3.17;;;;;;;2.61;80.73;100620.03;1795957;79;21029;-75
2022/10/21 01:30:17;;;;;;;3.58;3.17;;;;;;;2.61;80.73;100620.03;1792446;78;21509;-78
2022/10/21 01:33:10;;;;;;;6.62;3.70;;;;;;;2.59;81.08;100623.67;1791588;78;21107;-79
2022/10/21 01:36:00;;;;;;;5.42;3.60;;;;;;;2.54;80.99;100633.14;1794652;79;21076;-76
2022/10/21 01:38:46;;;;;;;4.40;3.08;;;;;;;2.49;81.16;100633.44;1791083;79;21658;-76
2022/10/21 01:41:21;;;;;;;5.62;2.98;;;;;;;2.46;81.20;100643.27;1794704;79;21068;-78
2022/10/21 01:44:22;;;;;;;5.00;3.08;;;;;;;2.53;80.58;100642.80;1803996;79;21506;-78
2022/10/21 01:47:06;;;;;;;5.97;3.40;;;;;;;2.44;80.98;100638.12;1775232;80;21069;-78
2022/10/21 01:49:35;;;;;;;;;;;;;;;2.44;80.98;100638.12;1794861;79;21006;-75
2022/10/21 01:52:02;;;;;;;4.65;3.22;;;;;;;2.33;81.28;100644.48;1787938;79;21146;-77
2022/10/21 01:54:37;;;;;;;4.97;3.20;;;;;;;2.33;81.28;100644.48;1782967;80;21021;-79
2022/10/21 01:57:03;;;;;;;5.45;3.15;;;;;;;2.29;81.44;100647.75;1777370;79;20977;-78
2022/10/21 01:59:30;;;;;;;5.10;3.40;;;;;;;2.35;81.43;100647.37;1789784;78;21520;-78
2022/10/21 02:01:59;;;;;;;4.50;3.42;;;;;;;2.47;81.08;100644.94;1787622;78;21057;-79
2022/10/21 02:04:26;;;;;;;6.17;3.22;;;;;;;2.46;80.99;100645.90;1796814;78;21805;-79
2022/10/21 02:06:53;;;;;;;5.35;2.80;;;;;;;2.29;81.18;100646.91;1820920;78;21036;-79
2022/10/21 02:09:20;;;;;;;4.83;2.98;;;;;;;2.29;81.18;100646.91;1793584;77;21001;-76
2022/10/21 02:11:49;;;;;;;3.90;2.98;;;;;;;2.16;81.24;100645.48;1802601;78;21051;-77
2022/10/21 02:14:32;;;;;;;3.65;2.95;;;;;;;2.07;81.57;100644.28;1790365;79;20974;-77
2022/10/21 02:16:59;;;;;;;4.00;2.77;;;;;;;2.09;81.70;100642.88;1829466;77;21581;-78
2022/10/21 02:19:26;;;;;;;4.85;3.22;;;;;;;2.21;81.58;100649.16;1794422;78;21047;-79
2022/10/21 02:21:55;;;;;;;5.20;2.92;;;;;;;2.19;81.71;100648.41;1778556;80;21069;-78
2022/10/21 02:24:27;;;;;;;3.95;3.05;;;;;;;2.15;81.80;100649.89;1780174;80;21009;-80
2022/10/21 02:26:53;;;;;;;4.55;3.20;;;;;;;2.12;81.72;100643.52;1775789;79;21053;-78
2022/10/21 02:29:27;;;;;;;3.60;3.05;;;;;;;2.10;81.72;100644.08;1828059;77;21105;-79
2022/10/21 02:32:17;;;;;;;5.45;3.02;;;;;;;2.10;81.67;100645.86;1822760;77;28146;-79
2022/10/21 02:35:30;;;;;;;7.12;4.25;;;;;;;2.15;81.56;100647.75;1820944;77;20957;-78
2022/10/21 02:38:17;;;;;;;5.17;4.20;;;;;;;2.26;81.17;100647.09;1827870;77;21547;-77
2022/10/21 02:41:04;;;;;;;5.30;4.12;;;;;;;2.18;81.42;100648.86;1792122;78;21022;-79
2022/10/21 02:43:42;;;;;;;4.80;3.62;;;;;;;2.08;81.80;100655.59;1765851;79;21040;-78
2022/10/21 02:46:11;;;;;;;7.47;4.33;;;;;;;2.08;81.80;100655.59;1788476;78;21000;-78
2022/10/21 02:48:39;;;;;;;5.90;4.12;;;;;;;1.99;81.83;100659.62;1818063;77;20998;-78
2022/10/21 02:51:06;;;;;;;5.22;3.33;;;;;;;2.02;81.99;100663.83;1803194;77;21069;-78
2022/10/21 02:53:33;;;;;;;4.60;3.58;;;;;;;2.16;81.73;100663.39;1795037;78;21080;-80
2022/10/21 02:55:59;;;;;;;7.78;4.30;;;;;;;2.19;81.78;100661.05;1802022;77;21241;-79
2022/10/21 02:58:26;;;;;;;6.00;4.03;;;;;;;2.18;81.75;100662.44;1796933;78;21083;-80
2022/10/21 03:00:52;;;;;;;4.90;3.67;;;;;;;2.18;81.78;100665.06;1815361;77;21051;-79
2022/10/21 03:03:19;;;;;;;4.75;3.67;;;;;;;2.18;81.78;100661.13;1820658;77;21035;-78
2022/10/21 03:05:46;;;;;;;5.62;3.52;;;;;;;2.11;81.63;100664.13;1813957;77;21047;-78
2022/10/21 03:08:12;;;;;;;6.50;3.33;;;;;;;2.06;81.78;100668.78;1787486;79;21123;-79
2022/10/21 03:10:39;;;;;;;3.87;2.98;;;;;;;2.12;81.60;100662.34;1782207;79;21057;-78
2022/10/21 03:13:07;;;;;;;3.85;3.15;;;;;;;2.22;81.44;100673.98;1788632;79;21080;-80
2022/10/21 03:15:33;;;;;;;8.85;3.17;;;;;;;2.22;81.44;100673.98;1779992;80;21008;-78
2022/10/21 03:18:01;;;;;;;3.75;3.27;;;;;;;2.19;81.63;100671.53;1783421;79;21009;-78
2022/10/21 03:20:29;;;;;;;4.37;3.05;;;;;;;2.17;81.57;100668.16;1783686;79;21154;-78
2022/10/21 03:22:57;;;;;;;10.13;3.37;;;;;;;2.10;81.49;100665.52;1785596;79;21537;-79
2022/10/21 03:25:24;;;;;;;4.97;2.90;;;;;;;2.10;81.49;100665.52;1786275;78;21512;-78
2022/10/21 03:27:52;;;;;;;4.20;3.30;;;;;;;2.13;81.41;100655.70;1778817;78;20990;-79
2022/10/21 03:30:19;;;;;;;4.87;3.45;;;;;;;2.25;81.16;100654.59;1792638;79;21514;-78
2022/10/21 03:32:45;;;;;;;5.58;3.45;;;;;;;2.25;81.34;100654.59;1782633;79;21128;-78
2022/10/21 03:35:14;;;;;;;5.75;3.85;;;;;;;2.22;81.39;100662.19;1775250;79;21506;-77
2022/10/21 03:37:41;;;;;;;6.12;4.00;;;;;;;2.17;81.38;100651.13;1776926;80;21037;-79
2022/10/21 03:40:08;;;;;;;7.65;3.90;;;;;;;2.03;81.50;100657.63;1782127;79;21034;-79
2022/10/21 03:42:36;;;;;;;7.30;3.22;;;;;;;2.03;81.50;100657.63;1782104;79;21046;-78
2022/10/21 03:45:04;;;;;;;6.35;4.05;;;;;;;1.99;81.46;100657.44;1788097;79;21636;-78
2022/10/21 03:47:31;;;;;;;4.60;3.90;;;;;;;1.99;81.38;100653.52;1780647;79;21046;-81
2022/10/21 03:49:57;;;;;;;6.83;4.37;;;;;;;1.87;81.81;100655.08;1798552;79;21560;-78
2022/10/21 03:52:24;;;;;;;7.90;4.83;;;;;;;1.74;82.20;100651.88;1789673;79;21025;-79
2022/10/21 03:54:51;;;;;;;8.18;4.55;;;;;;;1.62;82.55;100648.64;1786993;78;21064;-81
2022/10/21 03:57:17;;;;;;;8.15;4.28;;;;;;;1.56;82.75;100650.31;1783008;79;22379;-77
2022/10/21 03:59:44;;;;;;;5.95;4.00;;;;;;;1.55;82.94;100642.92;1793236;78;21017;-79
2022/10/21 04:02:11;;;;;;;8.38;4.53;;;;;;;1.55;82.94;100642.92;1791759;79;21060;-80
2022/10/21 04:04:38;;;;;;;6.80;4.50;;;;;;;1.45;83.57;100653.55;1791823;78;21033;-78
2022/10/21 04:07:05;;;;;;;6.12;4.72;;;;;;;1.34;83.84;100651.53;1796883;79;21029;-78
2022/10/21 04:09:32;;;;;;;7.05;4.05;;;;;;;1.25;84.14;100650.73;1779516;79;21364;-79
2022/10/21 04:12:00;;;;;;;8.43;4.72;;;;;;;1.28;84.20;100653.67;1767886;79;21026;-77
2022/10/21 04:14:27;;;;;;;5.40;4.00;;;;;;;1.36;84.10;100656.69;1783807;79;21079;-79
2022/10/21 04:16:53;;;;;;;6.67;4.47;;;;;;;1.33;84.37;100657.72;1783294;78;21021;-78
2022/10/21 04:19:21;;;;;;;6.10;4.65;;;;;;;1.28;84.68;100663.67;1790019;79;21030;-77
2022/10/21 04:21:49;;;;;;;6.50;4.35;;;;;;;1.22;84.87;100653.55;1790364;79;21278;-78
2022/10/21 04:24:16;;;;;;;9.68;4.85;;;;;;;1.26;85.05;100665.53;1806163;78;21004;-80
2022/10/21 04:26:43;;;;;;;6.78;4.87;;;;;;;1.34;84.78;100667.72;1803393;79;21045;-78
2022/10/21 04:29:10;;;;;;;6.95;4.75;;;;;;;1.43;84.58;100663.72;1768533;79;21065;-77
2022/10/21 04:31:37;;;;;;;7.50;5.15;;;;;;;1.36;84.70;100666.69;1780068;78;21080;-76
2022/10/21 04:34:03;;;;;;;6.47;5.17;;;;;;;1.28;84.89;100670.21;1773444;79;21118;-76
2022/10/21 04:36:31;;;;;;;6.85;5.08;;;;;;;1.25;85.03;100669.53;1786877;79;21108;-80
2022/10/21 04:38:57;;;;;;;6.65;5.60;;;;;;;1.27;84.87;100674.22;1792562;80;21001;-78
2022/10/21 04:41:24;;;;;;;9.75;5.15;;;;;;;1.38;84.57;100672.69;1792110;79;21538;-79
2022/10/21 04:43:51;;;;;;;7.75;5.40;;;;;;;1.35;84.58;100670.25;1781832;79;21002;-77
2022/10/21 04:46:19;;;;;;;8.10;5.62;;;;;;;1.27;84.84;100677.67;1790159;79;21095;-78
2022/10/21 04:48:46;;;;;;;9.08;4.28;;;;;;;1.20;84.93;100675.03;1787886;78;21060;-80
2022/10/21 04:51:13;;;;;;;7.53;5.40;;;;;;;1.15;85.05;100673.12;1796735;79;21092;-77
2022/10/21 04:53:41;;;;;;;7.90;5.37;;;;;;;1.24;84.91;100677.02;1762485;78;21042;-77
2022/10/21 04:56:07;;;;;;;6.67;4.95;;;;;;;1.26;84.91;100679.09;1772763;80;21073;-76
2022/10/21 04:58:34;;;;;;;8.95;5.22;;;;;;;1.20;85.30;100678.97;1771942;80;21815;-79
2022/10/21 05:01:01;;;;;;;8.45;5.65;;;;;;;1.14;85.63;100679.28;1752238;80;21546;-78
2022/10/21 05:03:27;;;;;;;9.00;5.70;;;;;;;1.12;85.76;100680.70;1770241;79;21589;-77
2022/10/21 05:05:54;;;;;;;8.33;5.42;;;;;;;1.24;85.65;100675.72;1770196;80;21010;-78
2022/10/21 05:08:21;;;;;;;8.63;5.40;;;;;;;1.31;85.56;100671.36;1773842;79;21076;-80
2022/10/21 05:10:48;;;;;;;8.53;5.78;;;;;;;1.29;85.65;100677.12;1782434;79;21102;-77
2022/10/21 05:13:14;;;;;;;6.50;4.83;;;;;;;1.25;85.80;100672.98;1775460;79;21038;-76
2022/10/21 05:15:42;;;;;;;6.95;4.80;;;;;;;1.30;85.99;100668.34;1783693;79;20975;-76
2022/10/21 05:18:09;;;;;;;9.00;4.55;;;;;;;1.56;85.71;100668.20;1763605;79;21014;-77
2022/10/21 05:20:39;;;;;;;6.95;5.15;;;;;;;1.61;85.82;100672.33;1784986;80;21045;-76
2022/10/21 05:23:06;;;;;;;9.10;5.70;;;;;;;1.61;85.82;100672.33;1765882;79;21121;-77
2022/10/21 05:25:33;;;;;;;7.58;5.80;;;;;;;1.60;85.66;100673.24;1775256;79;21033;-77
2022/10/21 05:27:59;;;;;;;14.47;5.72;;;;;;;1.63;85.67;100673.08;1771859;80;21051;-75
2022/10/21 05:30:26;;;;;;;6.15;4.83;;;;;;;1.84;85.18;100676.24;1770909;80;21506;-74
2022/10/21 05:32:52;;;;;;;7.42;5.22;;;;;;;1.88;85.03;100677.27;1775477;80;21520;-75
2022/10/21 05:35:19;;;;;;;12.25;5.70;;;;;;;1.89;85.16;100678.11;1776933;80;21116;-76
2022/10/21 05:37:45;;;;;;;6.12;5.00;;;;;;;1.94;84.81;100687.86;1776117;78;21018;-77
2022/10/21 05:40:12;;;;;;;6.55;4.55;;;;;;;1.94;84.81;100687.86;1781377;80;21022;-74
2022/10/21 05:42:39;;;;;;;6.50;4.72;;;;;;;2.04;84.44;100686.38;1778322;79;21046;-76
2022/10/21 05:45:09;;;;;;;7.10;4.80;;;;;;;2.18;84.20;100693.42;1771334;78;20976;-76
2022/10/21 05:47:35;;;;;;;7.42;5.28;;;;;;;2.16;84.34;100687.44;1777513;79;21084;-76
2022/10/21 05:50:01;;;;;;;7.05;5.28;;;;;;;2.26;83.99;100699.52;1799252;78;20993;-75
2022/10/21 05:52:28;;;;;;;9.30;5.12;;;;;;;2.26;83.99;100699.52;1792088;77;21130;-75
2022/10/21 05:54:59;;;;;;;7.40;4.72;;;;;;;2.30;83.66;100697.96;1806176;78;21076;-75
2022/10/21 05:57:25;;;;;;;7.60;5.20;;;;;;;2.50;83.20;100686.26;1807298;77;21495;-74
2022/10/21 05:59:52;;;;;;;7.97;5.33;;;;;;;2.59;82.73;100699.74;1782849;78;21230;-74
2022/10/21 06:02:20;;;;;;;8.30;5.30;;;;;;;2.57;82.71;100695.93;1773346;79;21025;-75
2022/10/21 06:04:46;;;;;;;8.40;5.08;;;;;;;2.58;82.66;100708.56;1780826;79;21049;-74
2022/10/21 06:07:13;;;;;;;7.28;4.90;;;;;;;2.60;82.58;100711.46;1784984;79;21059;-73
2022/10/21 06:09:40;;;;;;;8.35;5.05;;;;;;;2.83;81.90;100696.94;1784745;78;20962;-72
2022/10/21 06:12:07;;;;;;;6.03;4.20;;;;;;;2.83;81.90;100696.94;1784304;79;21143;-73
2022/10/21 06:14:36;;;;;;;7.03;5.17;;;;;;;2.89;81.94;100703.11;1783357;78;20975;-74
2022/10/21 06:17:03;;;;;;;7.60;4.58;;;;;;;2.91;81.70;100703.02;1781063;79;21088;-74
2022/10/21 06:19:30;;;;;;;6.65;3.95;;;;;;;2.91;81.49;100707.80;1779958;79;21026;-77
2022/10/21 06:21:57;;;;;;;7.55;4.47;;;;;;;3.00;81.35;100709.49;1777373;79;21105;-75
2022/10/21 06:24:24;;;;;;;7.70;4.85;;;;;;;3.21;80.64;100708.63;1795526;78;21137;-74
2022/10/21 06:26:51;;;;;;;7.87;4.45;;;;;;;3.21;80.64;100708.63;1784638;79;21003;-74
2022/10/21 06:29:19;;;;;;;8.03;4.90;;;;;;;3.22;80.93;100710.29;1768297;79;21020;-76
2022/10/21 06:31:45;;;;;;;9.13;4.60;;;;;;;3.26;80.73;100709.98;1789769;78;22264;-76
2022/10/21 06:34:12;;;;;;;6.12;4.40;;;;;;;3.31;80.39;100715.80;1791309;78;21513;-77
2022/10/21 06:36:39;;;;;;;5.95;4.45;;;;;;;3.50;79.94;100710.70;1772643;79;21295;-75
2022/10/21 06:39:06;;;;;;;6.62;4.22;;;;;;;3.59;79.76;100713.19;1786087;78;21064;-76
2022/10/21 06:41:33;;;;;;;5.85;4.78;;;;;;;3.65;79.58;100711.02;1789125;78;21056;-77
2022/10/21 06:44:03;;;;;;;7.80;4.53;;;;;;;3.70;79.49;100714.64;1782767;79;21066;-76
2022/10/21 06:46:29;;;;;;;5.80;3.87;;;;;;;3.74;79.29;100714.34;1788040;79;21059;-75
2022/10/21 06:48:58;;;;;;;10.88;5.10;;;;;;;3.89;79.11;100709.03;1787727;79;21026;-75
2022/10/21 06:51:24;;;;;;;7.70;4.67;;;;;;;4.12;78.54;100714.08;1795095;79;21060;-74
2022/10/21 06:53:55;;;;;;;6.53;4.47;;;;;;;4.20;78.62;100713.08;1800650;77;21064;-75
2022/10/21 06:56:22;;;;;;;9.03;5.20;;;;;;;4.27;78.21;100714.36;1792275;77;21010;-73
2022/10/21 06:58:49;;;;;;;8.15;4.95;;;;;;;4.37;78.05;100718.52;1801007;77;21096;-73
2022/10/21 07:01:21;;;;;;;6.75;5.70;;;;;;;4.46;77.94;100723.17;1792044;78;21103;-76
2022/10/21 07:03:47;;;;;;;7.17;4.55;;;;;;;4.55;77.29;100724.80;1791533;78;21016;-75
2022/10/21 07:06:14;;;;;;;6.95;4.33;;;;;;;4.77;76.81;100721.51;1800099;77;21069;-77
2022/10/21 07:08:42;;;;;;;7.58;5.10;;;;;;;4.88;75.89;100717.17;1805398;78;21021;-75
2022/10/21 07:11:09;;;;;;;6.50;4.60;;;;;;;4.89;75.96;100726.77;1808270;78;21057;-74
2022/10/21 07:13:36;;;;;;;7.47;4.55;;;;;;;4.92;75.52;100731.84;1792813;78;21237;-74
2022/10/21 07:16:13;;;;;;;9.50;4.90;;;;;;;4.95;75.13;100724.67;1789697;78;20994;-74
2022/10/21 07:18:39;;;;;;;9.88;6.25;;;;;;;4.98;74.77;100721.80;1788817;78;21029;-74
2022/10/21 07:21:09;;;;;;;8.78;5.25;;;;;;;5.03;74.95;100726.28;1806437;77;21016;-76
2022/10/21 07:23:38;;;;;;;7.15;5.12;;;;;;;5.12;74.79;100727.78;1815689;77;21039;-75
2022/10/21 07:26:07;;;;;;;7.25;5.22;;;;;;;5.36;74.29;100735.37;1779768;78;21159;-78
2022/10/21 07:28:34;;;;;;;9.65;5.53;;;;;;;5.45;74.00;100736.03;1786445;78;21060;-74
2022/10/21 07:31:03;;;;;;;7.72;5.37;;;;;;;5.52;73.80;100743.84;1785212;79;21033;-77
2022/10/21 07:33:29;;;;;;;12.15;5.83;;;;;;;5.58;74.06;100732.01;1753866;79;21084;-80
2022/10/21 07:36:15;;;;;;;11.08;5.90;;;;;;;5.67;74.31;100735.30;1782173;79;21020;-80
2022/10/21 07:38:45;;;;;;;15.38;8.10;;;;;;;5.81;74.68;100739.07;1786309;78;21980;-80
2022/10/21 07:41:23;;;;;;;13.78;7.80;;;;;;;5.97;74.38;100736.20;1758832;80;21040;-75
2022/10/21 07:43:51;;;;;;;13.80;7.45;;;;;;;6.20;73.49;100741.53;1779274;78;21005;-74
2022/10/21 07:46:18;;;;;;;13.08;9.18;;;;;;;6.40;73.79;100742.20;1785078;78;21002;-74
2022/10/21 07:48:44;;;;;;;12.98;9.35;;;;;;;6.50;72.94;100743.16;1794507;78;21087;-76
2022/10/21 07:51:16;;;;;;;14.58;8.88;;;;;;;6.55;72.75;100744.61;1778997;79;21259;-77
2022/10/21 07:53:43;;;;;;;15.30;9.55;;;;;;;6.60;72.33;100747.75;1781221;78;21069;-74
2022/10/21 07:56:17;;;;;;;11.85;8.53;;;;;;;6.59;71.50;100746.91;1772400;78;21080;-75
2022/10/21 07:58:45;;;;;;;11.48;8.03;;;;;;;6.54;71.68;100754.33;1781172;79;20990;-72
2022/10/21 08:01:12;;;;;;;9.13;7.00;;;;;;;6.49;71.47;100751.22;1785423;78;20994;-72
2022/10/21 08:03:40;;;;;;;13.53;6.50;;;;;;;6.46;71.59;100762.00;1784499;78;21273;-72
2022/10/21 08:06:08;;;;;;;7.47;6.30;;;;;;;6.44;71.96;100758.16;1787134;78;21033;-75
2022/10/21 08:08:34;;;;;;;9.53;5.85;;;;;;;6.45;72.40;100759.85;1787258;78;21576;-76
2022/10/21 08:11:01;;;;;;;6.42;4.97;;;;;;;6.57;71.82;100750.64;1777217;78;21053;-75
2022/10/21 08:13:30;;;;;;;8.70;5.35;;;;;;;6.78;71.22;100753.40;1781609;78;21113;-73
2022/10/21 08:15:56;;;;;;;5.72;4.33;;;;;;;6.87;71.59;100748.73;1784069;78;22700;-74
2022/10/21 08:18:25;;;;;;;6.35;4.50;;;;;;;6.94;72.04;100747.30;1777703;78;21079;-74
2022/10/21 08:20:53;;;;;;;8.40;4.20;;;;;;;7.00;70.35;100747.30;1775163;78;21033;-73
2022/10/21 08:23:22;;;;;;;6.17;4.28;;;;;;;6.97;70.29;100743.08;1790640;78;20994;-74
2022/10/21 08:25:51;;;;;;;8.03;4.65;;;;;;;6.97;69.21;100743.57;1785814;78;21022;-74
2022/10/21 08:28:17;;;;;;;6.17;3.85;;;;;;;6.83;69.13;100740.20;1781349;78;22130;-75
2022/10/21 08:30:44;;;;;;;4.80;4.12;;;;;;;6.73;69.43;100741.05;1780165;78;21056;-75
2022/10/21 08:33:12;;;;;;;5.10;3.70;;;;;;;6.74;70.13;100734.80;1783792;78;21061;-75
2022/10/21 08:35:39;;;;;;;9.23;4.12;;;;;;;6.81;70.12;100733.36;1783791;78;21413;-74
2022/10/21 08:38:06;;;;;;;11.20;5.50;;;;;;;6.89;69.63;100738.88;1787164;78;21536;-77
2022/10/21 08:40:43;;;;;;;7.72;4.50;;;;;;;6.97;69.90;100727.23;1772637;78;21098;-75
2022/10/21 08:43:23;;;;;;;9.60;4.72;;;;;;;7.08;69.52;100725.07;1788095;78;21053;-76
2022/10/21 08:45:57;;;;;;;7.53;4.40;;;;;;;7.18;68.98;100730.47;1782498;78;21557;-73
2022/10/21 08:48:27;;;;;;;6.75;4.65;;;;;;;7.24;68.26;100732.61;1775122;78;21061;-75
2022/10/21 08:50:54;;;;;;;6.78;4.62;;;;;;;7.22;67.78;100740.69;1786668;78;20962;-74
2022/10/21 08:53:39;;;;;;;6.87;4.40;;;;;;;7.18;67.81;100741.03;1788499;79;21136;-74
2022/10/21 08:56:11;;;;;;;8.03;4.60;;;;;;;7.12;67.56;100738.89;1777475;78;21636;-75
2022/10/21 08:58:38;;;;;;;6.80;5.15;;;;;;;7.03;67.47;100739.98;1772713;79;26779;-74
2022/10/21 09:01:20;;;;;;;5.85;4.15;;;;;;;7.01;67.61;100744.55;1757615;79;21092;-74
2022/10/21 09:04:10;;;;;;;10.32;6.25;;;;;;;6.99;67.76;100740.33;1784011;79;21560;-76
2022/10/21 09:07:08;;;;;;;6.33;4.83;;;;;;;6.99;68.58;100745.61;1741377;82;22857;-76
2022/10/21 09:09:55;;;;;;;8.45;5.53;;;;;;;7.01;68.38;100741.04;1737826;81;21084;-75
2022/10/21 09:12:30;;;;;;;7.30;5.58;;;;;;;7.05;68.51;100739.84;1768669;78;21068;-76
2022/10/21 09:15:23;;;;;;;7.28;5.92;;;;;;;7.04;67.96;100742.97;1778412;79;21054;-75
2022/10/21 09:18:43;;;;;;;10.43;6.37;;;;;;;7.02;68.04;100740.09;1788953;78;22014;-74
2022/10/21 09:21:19;;;;;;;8.20;6.42;;;;;;;6.97;67.50;100744.40;1790666;78;21096;-74
2022/10/21 09:24:11;;;;;;;9.03;5.53;;;;;;;6.88;67.90;100742.02;1789031;79;21596;-75
2022/10/21 09:26:43;;;;;;;6.83;5.57;;;;;;;6.85;67.77;100736.95;1792880;78;21081;-73
2022/10/21 09:29:25;;;;;;;8.55;6.10;;;;;;;6.83;68.07;100738.87;1783177;79;21065;-75
2022/10/21 09:31:57;;;;;;;8.50;6.70;;;;;;;6.82;68.18;100731.94;1796498;78;21084;-76
2022/10/21 09:34:50;;;;;;;13.60;7.58;;;;;;;6.81;68.27;100728.91;1787542;79;21081;-76
2022/10/21 09:37:25;;;;;;;11.43;8.30;;;;;;;6.81;68.38;100745.25;1792783;79;21538;-77
2022/10/21 09:40:00;;;;;;;10.95;7.12;;;;;;;6.75;68.71;100737.32;1768140;79;21005;-76
2022/10/21 09:42:28;;;;;;;7.92;5.83;;;;;;;6.76;68.56;100744.76;1791860;79;21533;-81
2022/10/21 09:44:54;;;;;;;7.50;5.03;;;;;;;6.62;67.91;100721.58;1793587;78;21064;-75
2022/10/21 09:47:23;;;;;;;7.90;5.53;;;;;;;6.71;67.86;100737.69;1802384;78;21148;-77
2022/10/21 09:49:54;;;;;;;6.55;4.83;;;;;;;6.66;68.62;100734.93;1778292;78;21123;-76
2022/10/21 09:52:22;;;;;;;8.43;5.47;;;;;;;6.80;69.28;100731.67;1782275;78;21632;-78
2022/10/21 09:54:48;;;;;;;6.47;4.30;;;;;;;7.08;69.48;100729.03;1782724;78;21078;-78
2022/10/21 09:57:23;;;;;;;7.22;4.40;;;;;;;7.26;68.86;100724.08;1793984;78;21104;-76
2022/10/21 09:59:58;;;;;;;7.17;4.87;;;;;;;7.37;67.59;100716.62;1795632;78;21096;-76
2022/10/21 10:02:36;;;;;;;8.15;4.40;;;;;;;7.36;66.86;100715.80;1766398;78;21077;-77
2022/10/21 10:05:42;;;;;;;6.50;5.05;;;;;;;7.33;66.55;100713.88;1770253;79;21124;-79
2022/10/21 10:08:32;;;;;;;6.55;4.67;;;;;;;7.34;66.77;100715.54;1777536;78;21115;-78
2022/10/21 10:11:04;;;;;;;6.62;5.00;;;;;;;7.38;66.50;100707.72;1791408;77;21560;-75
2022/10/21 10:13:31;;;;;;;8.50;5.37;;;;;;;7.45;66.54;100702.30;1796704;77;21368;-76
2022/10/21 10:16:27;;;;;;;9.33;5.67;;;;;;;7.52;66.60;100695.56;1792560;78;21099;-74
2022/10/21 10:19:26;;;;;;;7.72;4.75;;;;;;;7.61;66.22;100701.42;1792447;78;21567;-79
2022/10/21 10:22:14;;;;;;;12.55;5.22;;;;;;;7.74;67.09;100701.23;1770015;77;21051;-76
2022/10/21 10:24:43;;;;;;;6.95;5.97;;;;;;;7.88;65.55;100693.02;1807042;77;21005;-77
2022/10/21 10:27:17;;;;;;;7.40;5.37;;;;;;;7.91;66.07;100697.70;1816102;77;21223;-77
2022/10/21 10:29:49;;;;;;;9.58;5.47;;;;;;;7.94;65.89;100690.34;1804922;78;21111;-77
2022/10/21 10:32:15;;;;;;;8.50;5.12;;;;;;;7.98;65.53;100689.12;1823187;77;21047;-75
2022/10/21 10:34:55;;;;;;;6.65;4.78;;;;;;;7.98;65.03;100696.23;1765990;79;21088;-76
2022/10/21 10:37:26;;;;;;;7.35;5.53;;;;;;;7.91;64.77;100698.52;1787980;79;21010;-76
2022/10/21 10:39:57;;;;;;;7.58;5.70;;;;;;;7.83;65.19;100691.72;1788910;79;21768;-79
2022/10/21 10:42:32;;;;;;;7.78;5.80;;;;;;;7.80;65.32;100697.25;1782546;79;20931;-80
2022/10/21 10:45:03;;;;;;;9.83;5.90;;;;;;;7.75;65.61;100691.03;1793912;79;20994;-80
2022/10/21 10:47:41;;;;;;;7.42;5.20;;;;;;;7.74;66.08;100695.11;1787137;79;20974;-78
2022/10/21 10:50:42;;;;;;;7.85;5.62;;;;;;;7.79;66.55;100688.97;1760720;81;21073;-77
2022/10/21 10:53:37;;;;;;;8.05;5.60;;;;;;;7.86;66.25;100678.22;1773164;79;21544;-78
2022/10/21 10:56:18;;;;;;;9.23;5.28;;;;;;;7.96;65.82;100672.53;1792178;80;21006;-78
2022/10/21 10:58:53;;;;;;;8.23;5.03;;;;;;;8.02;66.18;100658.78;1787983;78;21068;-78
2022/10/21 11:01:30;;;;;;;7.72;5.17;;;;;;;8.10;65.31;100655.48;1795666;78;21562;-78
2022/10/21 11:04:16;;;;;;;6.78;5.33;;;;;;;8.16;64.68;100653.64;1775230;78;21017;-79
2022/10/21 11:07:16;;;;;;;8.25;4.87;;;;;;;8.18;64.55;100657.00;1766333;78;21158;-79
2022/10/21 11:09:43;;;;;;;9.28;5.35;;;;;;;8.21;63.92;100650.13;1790786;79;21065;-79
2022/10/21 11:12:19;;;;;;;9.40;4.78;;;;;;;8.23;63.82;100649.52;1792038;79;21477;-78
2022/10/21 11:14:52;;;;;;;9.23;5.58;;;;;;;8.24;63.89;100640.58;1771542;80;21635;-76
2022/10/21 11:17:21;;;;;;;5.30;4.30;;;;;;;8.30;63.84;100640.55;1789080;79;21537;-78
2022/10/21 11:19:56;;;;;;;9.05;5.20;;;;;;;8.37;63.74;100649.65;1786127;80;21123;-79
2022/10/21 11:22:50;;;;;;;8.65;4.67;;;;;;;8.37;63.40;100644.36;1778581;78;21044;-79
2022/10/21 11:25:41;;;;;;;5.92;3.95;;;;;;;8.38;63.42;100631.48;1783908;78;21077;-80
2022/10/21 11:28:32;;;;;;;5.37;3.90;;;;;;;8.51;63.71;100634.42;1797720;78;21001;-79
2022/10/21 11:31:30;;;;;;;5.12;4.00;;;;;;;8.69;63.31;100626.17;1790322;78;21112;-78
2022/10/21 11:34:06;;;;;;;4.50;3.60;;;;;;;8.88;63.36;100613.98;1757095;80;21257;-78
2022/10/21 11:36:51;;;;;;;4.22;3.40;;;;;;;9.09;61.69;100607.25;1764484;80;21114;-76
2022/10/21 11:39:49;;;;;;;4.97;3.00;;;;;;;9.16;60.48;100608.39;1766915;80;21002;-77
2022/10/21 11:42:30;;;;;;;4.42;2.10;;;;;;;9.18;59.34;100611.24;1768429;79;21029;-77
2022/10/21 11:45:35;;;;;;;5.47;2.50;;;;;;;9.16;58.60;100605.24;1787285;78;21018;-77
2022/10/21 11:48:10;;;;;;;4.55;2.65;;;;;;;9.20;58.00;100611.11;1786191;78;21943;-76
2022/10/21 11:50:46;;;;;;;5.28;3.40;;;;;;;9.23;58.39;100604.19;1793540;79;21524;-77
2022/10/21 11:53:51;;;;;;;4.00;2.72;;;;;;;9.23;58.40;100601.07;1794966;79;21039;-76
2022/10/21 11:56:42;;;;;;;;;;;;;;;9.20;58.74;100609.78;1788946;78;21513;-75
2022/10/21 11:59:37;;;;;;;8.83;6.10;;;;;;;9.16;58.16;100606.57;1799840;79;20251;-76
2022/10/21 12:02:30;;;;;;;6.60;4.55;;;;;;;9.01;56.75;100603.47;1782688;78;21093;-75